sensor_id;sensor_type;location;lat;lon;timestamp;noise_LAeq;noise_LA_min;noise_LA_max;noise_LA01;noise_LA95
77134;Laerm;25175;50.140;18.990;2023-04-25T00:02:01;38.14;33.54;44.72;;
77134;Laerm;25175;50.140;18.990;2023-04-25T00:05:14;38.47;34.30;52.01;;
77134;Laerm;25175;50.140;18.990;2023-04-25T00:08:25;37.35;33.07;48.69;;
77134;Laerm;25175;50.140;18.990;2023-04-25T00:11:55;36.20;32.91;49.76;;
77134;Laerm;25175;50.140;18.990;2023-04-25T00:15:33;35.37;32.78;48.49;;
77134;Laerm;25175;50.140;18.990;2023-04-25T00:25:32;39.50;33.12;55.94;;
77134;Laerm;25175;50.140;18.990;2023-04-25T00:28:49;36.97;33.22;52.88;;
77134;Laerm;25175;50.140;18.990;2023-04-25T00:31:56;39.23;33.90;58.90;;
77134;Laerm;25175;50.140;18.990;2023-04-25T00:35:05;38.79;33.87;53.12;;
77134;Laerm;25175;50.140;18.990;2023-04-25T00:38:18;36.56;33.71;50.03;;
77134;Laerm;25175;50.140;18.990;2023-04-25T00:41:26;39.04;33.75;49.13;;
77134;Laerm;25175;50.140;18.990;2023-04-25T00:44:41;36.95;33.56;51.19;;
77134;Laerm;25175;50.140;18.990;2023-04-25T00:47:47;36.12;33.55;50.43;;
77134;Laerm;25175;50.140;18.990;2023-04-25T00:51:20;35.58;33.30;44.50;;
77134;Laerm;25175;50.140;18.990;2023-04-25T00:54:34;35.09;32.85;40.93;;
77134;Laerm;25175;50.140;18.990;2023-04-25T00:57:51;35.37;32.78;57.86;;
77134;Laerm;25175;50.140;18.990;2023-04-25T01:01:04;35.05;33.13;53.43;;
77134;Laerm;25175;50.140;18.990;2023-04-25T01:04:18;35.00;32.92;40.84;;
77134;Laerm;25175;50.140;18.990;2023-04-25T01:07:31;34.74;32.32;52.31;;
77134;Laerm;25175;50.140;18.990;2023-04-25T01:10:37;35.44;32.64;50.40;;
77134;Laerm;25175;50.140;18.990;2023-04-25T01:13:48;34.45;32.68;51.47;;
77134;Laerm;25175;50.140;18.990;2023-04-25T01:16:56;34.90;32.80;45.29;;
77134;Laerm;25175;50.140;18.990;2023-04-25T01:23:39;35.23;32.96;53.05;;
77134;Laerm;25175;50.140;18.990;2023-04-25T01:26:51;35.55;33.04;46.78;;
77134;Laerm;25175;50.140;18.990;2023-04-25T01:33:44;56.54;32.81;72.28;;
77134;Laerm;25175;50.140;18.990;2023-04-25T01:37:10;49.30;33.24;66.80;;
77134;Laerm;25175;50.140;18.990;2023-04-25T01:40:22;36.80;33.44;54.42;;
77134;Laerm;25175;50.140;18.990;2023-04-25T01:43:29;35.67;33.18;52.60;;
77134;Laerm;25175;50.140;18.990;2023-04-25T01:46:47;35.96;33.06;49.78;;
77134;Laerm;25175;50.140;18.990;2023-04-25T01:53:50;40.29;33.81;57.11;;
77134;Laerm;25175;50.140;18.990;2023-04-25T01:57:09;41.33;35.05;53.62;;
77134;Laerm;25175;50.140;18.990;2023-04-25T02:00:38;36.68;33.74;52.50;;
77134;Laerm;25175;50.140;18.990;2023-04-25T02:03:44;35.38;33.01;49.43;;
77134;Laerm;25175;50.140;18.990;2023-04-25T02:07:03;39.07;33.12;57.42;;
77134;Laerm;25175;50.140;18.990;2023-04-25T02:10:38;35.85;33.23;48.06;;
77134;Laerm;25175;50.140;18.990;2023-04-25T02:13:58;35.31;33.03;41.92;;
77134;Laerm;25175;50.140;18.990;2023-04-25T02:17:46;35.56;33.06;42.41;;
77134;Laerm;25175;50.140;18.990;2023-04-25T02:21:19;43.59;33.30;62.88;;
77134;Laerm;25175;50.140;18.990;2023-04-25T02:24:30;39.72;34.08;59.32;;
77134;Laerm;25175;50.140;18.990;2023-04-25T02:27:39;38.17;34.73;50.30;;
77134;Laerm;25175;50.140;18.990;2023-04-25T02:39:59;46.44;37.70;59.66;;
77134;Laerm;25175;50.140;18.990;2023-04-25T02:43:05;46.10;37.25;58.77;;
77134;Laerm;25175;50.140;18.990;2023-04-25T02:46:11;45.93;37.20;58.22;;
77134;Laerm;25175;50.140;18.990;2023-04-25T02:49:20;46.51;36.81;58.06;;
77134;Laerm;25175;50.140;18.990;2023-04-25T02:52:28;39.43;33.94;53.65;;
77134;Laerm;25175;50.140;18.990;2023-04-25T02:56:05;36.70;33.33;56.44;;
77134;Laerm;25175;50.140;18.990;2023-04-25T02:59:25;36.44;33.49;51.48;;
77134;Laerm;25175;50.140;18.990;2023-04-25T03:02:56;38.55;33.88;56.66;;
77134;Laerm;25175;50.140;18.990;2023-04-25T03:06:13;37.12;33.26;57.43;;
77134;Laerm;25175;50.140;18.990;2023-04-25T03:09:31;44.28;33.73;72.24;;
77134;Laerm;25175;50.140;18.990;2023-04-25T03:12:41;46.42;34.75;65.66;;
77134;Laerm;25175;50.140;18.990;2023-04-25T03:16:19;41.53;34.12;58.59;;
77134;Laerm;25175;50.140;18.990;2023-04-25T03:19:29;45.54;34.44;61.78;;
77134;Laerm;25175;50.140;18.990;2023-04-25T03:22:57;42.27;34.91;59.71;;
77134;Laerm;25175;50.140;18.990;2023-04-25T03:26:05;42.62;34.43;58.28;;
77134;Laerm;25175;50.140;18.990;2023-04-25T03:29:21;41.95;34.74;58.75;;
77134;Laerm;25175;50.140;18.990;2023-04-25T03:32:33;39.81;34.68;49.27;;
77134;Laerm;25175;50.140;18.990;2023-04-25T03:35:39;41.74;34.65;53.73;;
77134;Laerm;25175;50.140;18.990;2023-04-25T03:38:47;43.53;34.72;55.52;;
77134;Laerm;25175;50.140;18.990;2023-04-25T03:41:55;41.19;34.42;55.42;;
77134;Laerm;25175;50.140;18.990;2023-04-25T03:45:11;44.76;34.88;61.42;;
77134;Laerm;25175;50.140;18.990;2023-04-25T03:48:22;38.50;34.79;45.82;;
77134;Laerm;25175;50.140;18.990;2023-04-25T03:51:46;43.36;35.12;56.49;;
77134;Laerm;25175;50.140;18.990;2023-04-25T03:54:58;45.65;35.49;64.62;;
77134;Laerm;25175;50.140;18.990;2023-04-25T03:58:22;43.70;34.86;56.31;;
77134;Laerm;25175;50.140;18.990;2023-04-25T04:01:36;42.95;35.08;60.71;;
77134;Laerm;25175;50.140;18.990;2023-04-25T04:04:42;42.94;34.67;57.82;;
77134;Laerm;25175;50.140;18.990;2023-04-25T04:07:59;40.06;34.45;49.82;;
77134;Laerm;25175;50.140;18.990;2023-04-25T04:11:33;41.77;34.91;54.76;;
77134;Laerm;25175;50.140;18.990;2023-04-25T04:14:40;47.41;35.15;60.03;;
77134;Laerm;25175;50.140;18.990;2023-04-25T04:18:25;44.85;35.21;57.02;;
77134;Laerm;25175;50.140;18.990;2023-04-25T04:21:33;47.54;35.23;62.86;;
77134;Laerm;25175;50.140;18.990;2023-04-25T04:24:59;41.76;34.91;58.53;;
77134;Laerm;25175;50.140;18.990;2023-04-25T04:28:30;43.54;34.66;54.14;;
77134;Laerm;25175;50.140;18.990;2023-04-25T04:32:07;48.78;35.06;67.08;;
77134;Laerm;25175;50.140;18.990;2023-04-25T04:35:22;49.35;34.76;66.38;;
77134;Laerm;25175;50.140;18.990;2023-04-25T04:38:33;44.29;34.40;55.81;;
77134;Laerm;25175;50.140;18.990;2023-04-25T04:41:51;45.74;36.18;59.98;;
77134;Laerm;25175;50.140;18.990;2023-04-25T04:45:27;44.28;35.35;58.02;;
77134;Laerm;25175;50.140;18.990;2023-04-25T04:49:01;45.96;36.15;60.36;;
77134;Laerm;25175;50.140;18.990;2023-04-25T04:52:28;47.65;36.13;64.08;;
77134;Laerm;25175;50.140;18.990;2023-04-25T04:56:07;46.87;35.53;61.33;;
77134;Laerm;25175;50.140;18.990;2023-04-25T04:59:36;47.58;36.41;60.41;;
77134;Laerm;25175;50.140;18.990;2023-04-25T05:02:49;43.03;35.35;59.13;;
77134;Laerm;25175;50.140;18.990;2023-04-25T05:06:46;49.42;35.20;62.68;;
77134;Laerm;25175;50.140;18.990;2023-04-25T05:10:20;45.74;35.02;58.44;;
77134;Laerm;25175;50.140;18.990;2023-04-25T05:14:46;45.43;34.98;59.79;;
77134;Laerm;25175;50.140;18.990;2023-04-25T05:18:16;46.50;36.21;59.54;;
77134;Laerm;25175;50.140;18.990;2023-04-25T05:21:33;45.43;35.36;56.33;;
77134;Laerm;25175;50.140;18.990;2023-04-25T05:25:20;48.96;35.32;63.73;;
77134;Laerm;25175;50.140;18.990;2023-04-25T05:32:55;47.78;35.55;56.79;;
77134;Laerm;25175;50.140;18.990;2023-04-25T05:36:24;46.56;35.80;58.03;;
77134;Laerm;25175;50.140;18.990;2023-04-25T05:39:31;48.67;35.78;71.21;;
77134;Laerm;25175;50.140;18.990;2023-04-25T05:42:55;47.91;37.01;61.40;;
77134;Laerm;25175;50.140;18.990;2023-04-25T05:46:27;47.61;36.16;57.87;;
77134;Laerm;25175;50.140;18.990;2023-04-25T05:50:00;48.68;36.42;58.53;;
77134;Laerm;25175;50.140;18.990;2023-04-25T05:53:27;47.21;35.31;57.72;;
77134;Laerm;25175;50.140;18.990;2023-04-25T05:56:45;46.36;34.88;61.55;;
77134;Laerm;25175;50.140;18.990;2023-04-25T05:59:54;48.72;35.25;60.42;;
77134;Laerm;25175;50.140;18.990;2023-04-25T06:03:16;48.00;36.30;61.73;;
77134;Laerm;25175;50.140;18.990;2023-04-25T06:06:22;49.30;37.12;64.61;;
77134;Laerm;25175;50.140;18.990;2023-04-25T06:09:30;48.80;36.26;60.76;;
77134;Laerm;25175;50.140;18.990;2023-04-25T06:12:46;49.22;36.73;62.57;;
77134;Laerm;25175;50.140;18.990;2023-04-25T06:19:41;44.09;34.26;56.96;;
77134;Laerm;25175;50.140;18.990;2023-04-25T06:22:50;47.60;35.09;60.47;;
77134;Laerm;25175;50.140;18.990;2023-04-25T06:26:21;47.60;34.85;63.01;;
77134;Laerm;25175;50.140;18.990;2023-04-25T06:29:28;47.38;35.44;59.55;;
77134;Laerm;25175;50.140;18.990;2023-04-25T06:33:00;45.42;34.92;57.56;;
77134;Laerm;25175;50.140;18.990;2023-04-25T06:36:12;47.22;35.56;62.66;;
77134;Laerm;25175;50.140;18.990;2023-04-25T06:39:23;48.07;33.72;58.90;;
77134;Laerm;25175;50.140;18.990;2023-04-25T06:42:32;46.11;34.82;62.34;;
77134;Laerm;25175;50.140;18.990;2023-04-25T06:45:57;45.34;33.88;58.43;;
77134;Laerm;25175;50.140;18.990;2023-04-25T06:49:36;45.53;34.27;60.19;;
77134;Laerm;25175;50.140;18.990;2023-04-25T06:52:48;49.42;34.84;63.07;;
77134;Laerm;25175;50.140;18.990;2023-04-25T06:56:07;45.71;34.56;59.79;;
77134;Laerm;25175;50.140;18.990;2023-04-25T06:59:30;46.34;35.06;61.26;;
77134;Laerm;25175;50.140;18.990;2023-04-25T07:02:36;52.44;33.97;70.18;;
77134;Laerm;25175;50.140;18.990;2023-04-25T07:05:43;53.13;34.26;68.84;;
77134;Laerm;25175;50.140;18.990;2023-04-25T07:08:52;54.17;34.85;75.52;;
77134;Laerm;25175;50.140;18.990;2023-04-25T07:11:59;42.15;33.72;53.20;;
77134;Laerm;25175;50.140;18.990;2023-04-25T07:15:09;50.66;33.73;72.58;;
77134;Laerm;25175;50.140;18.990;2023-04-25T07:18:18;46.91;35.16;69.85;;
77134;Laerm;25175;50.140;18.990;2023-04-25T07:21:31;44.93;34.06;57.00;;
77134;Laerm;25175;50.140;18.990;2023-04-25T07:24:42;48.79;34.34;65.92;;
77134;Laerm;25175;50.140;18.990;2023-04-25T07:27:55;44.42;33.82;64.63;;
77134;Laerm;25175;50.140;18.990;2023-04-25T07:31:21;50.61;33.87;76.91;;
77134;Laerm;25175;50.140;18.990;2023-04-25T07:34:33;44.01;33.72;63.48;;
77134;Laerm;25175;50.140;18.990;2023-04-25T07:37:40;47.22;34.26;68.94;;
77134;Laerm;25175;50.140;18.990;2023-04-25T07:41:03;45.37;35.05;56.84;;
77134;Laerm;25175;50.140;18.990;2023-04-25T07:44:11;46.03;34.11;55.95;;
77134;Laerm;25175;50.140;18.990;2023-04-25T07:51:28;45.69;33.77;62.53;;
77134;Laerm;25175;50.140;18.990;2023-04-25T07:54:40;44.33;33.57;55.71;;
77134;Laerm;25175;50.140;18.990;2023-04-25T07:57:58;42.41;33.26;57.75;;
77134;Laerm;25175;50.140;18.990;2023-04-25T08:01:06;58.06;33.43;76.95;;
77134;Laerm;25175;50.140;18.990;2023-04-25T08:04:22;54.26;34.92;72.35;;
77134;Laerm;25175;50.140;18.990;2023-04-25T08:07:59;48.13;34.79;72.93;;
77134;Laerm;25175;50.140;18.990;2023-04-25T08:11:06;44.44;35.33;62.16;;
77134;Laerm;25175;50.140;18.990;2023-04-25T08:14:15;45.63;34.62;59.30;;
77134;Laerm;25175;50.140;18.990;2023-04-25T08:17:23;44.22;33.94;56.07;;
77134;Laerm;25175;50.140;18.990;2023-04-25T08:20:32;47.06;35.84;70.26;;
77134;Laerm;25175;50.140;18.990;2023-04-25T08:23:48;40.82;33.36;54.64;;
77134;Laerm;25175;50.140;18.990;2023-04-25T08:27:29;47.48;35.61;67.93;;
77134;Laerm;25175;50.140;18.990;2023-04-25T08:30:39;42.83;34.41;55.34;;
77134;Laerm;25175;50.140;18.990;2023-04-25T08:33:55;44.12;33.35;59.62;;
77134;Laerm;25175;50.140;18.990;2023-04-25T08:37:14;48.69;35.50;63.18;;
77134;Laerm;25175;50.140;18.990;2023-04-25T08:40:50;45.67;34.00;59.50;;
77134;Laerm;25175;50.140;18.990;2023-04-25T08:48:01;42.11;34.22;64.76;;
77134;Laerm;25175;50.140;18.990;2023-04-25T08:51:17;46.97;34.43;58.96;;
77134;Laerm;25175;50.140;18.990;2023-04-25T08:54:29;46.26;35.04;66.18;;
77134;Laerm;25175;50.140;18.990;2023-04-25T08:57:39;44.66;34.36;60.37;;
77134;Laerm;25175;50.140;18.990;2023-04-25T09:00:46;47.95;33.94;62.69;;
77134;Laerm;25175;50.140;18.990;2023-04-25T09:03:58;45.33;33.80;64.51;;
77134;Laerm;25175;50.140;18.990;2023-04-25T09:07:08;42.17;33.83;58.24;;
77134;Laerm;25175;50.140;18.990;2023-04-25T09:10:15;41.41;33.72;55.92;;
77134;Laerm;25175;50.140;18.990;2023-04-25T09:13:27;41.50;33.81;57.25;;
77134;Laerm;25175;50.140;18.990;2023-04-25T09:17:02;41.39;33.90;53.70;;
77134;Laerm;25175;50.140;18.990;2023-04-25T09:20:43;43.30;33.92;60.66;;
77134;Laerm;25175;50.140;18.990;2023-04-25T09:23:51;44.75;34.41;59.64;;
77134;Laerm;25175;50.140;18.990;2023-04-25T09:27:04;47.57;35.00;62.52;;
77134;Laerm;25175;50.140;18.990;2023-04-25T09:30:30;43.24;34.40;57.72;;
77134;Laerm;25175;50.140;18.990;2023-04-25T09:34:02;44.79;34.29;57.89;;
77134;Laerm;25175;50.140;18.990;2023-04-25T09:37:24;47.02;34.82;61.72;;
77134;Laerm;25175;50.140;18.990;2023-04-25T09:40:42;45.76;34.46;56.71;;
77134;Laerm;25175;50.140;18.990;2023-04-25T09:43:58;48.88;38.67;68.16;;
77134;Laerm;25175;50.140;18.990;2023-04-25T09:47:14;43.74;34.15;61.51;;
77134;Laerm;25175;50.140;18.990;2023-04-25T09:50:25;45.75;34.97;56.47;;
77134;Laerm;25175;50.140;18.990;2023-04-25T09:53:47;44.64;34.48;58.26;;
77134;Laerm;25175;50.140;18.990;2023-04-25T09:57:11;49.11;34.49;64.13;;
77134;Laerm;25175;50.140;18.990;2023-04-25T10:00:21;49.64;34.73;66.14;;
77134;Laerm;25175;50.140;18.990;2023-04-25T10:03:29;47.33;34.32;59.41;;
77134;Laerm;25175;50.140;18.990;2023-04-25T10:06:53;44.28;35.35;57.22;;
77134;Laerm;25175;50.140;18.990;2023-04-25T10:10:12;45.25;34.97;58.54;;
77134;Laerm;25175;50.140;18.990;2023-04-25T10:13:18;45.60;34.65;61.74;;
77134;Laerm;25175;50.140;18.990;2023-04-25T10:16:50;46.09;35.71;57.27;;
77134;Laerm;25175;50.140;18.990;2023-04-25T10:20:14;44.59;34.94;55.70;;
77134;Laerm;25175;50.140;18.990;2023-04-25T10:23:22;42.98;34.18;58.54;;
77134;Laerm;25175;50.140;18.990;2023-04-25T10:26:32;43.98;35.38;56.21;;
77134;Laerm;25175;50.140;18.990;2023-04-25T10:29:38;44.08;34.70;59.37;;
77134;Laerm;25175;50.140;18.990;2023-04-25T10:32:47;44.27;35.21;60.90;;
77134;Laerm;25175;50.140;18.990;2023-04-25T10:35:58;45.72;34.77;60.21;;
77134;Laerm;25175;50.140;18.990;2023-04-25T10:39:23;45.75;35.50;57.81;;
77134;Laerm;25175;50.140;18.990;2023-04-25T10:42:32;42.80;34.50;56.49;;
77134;Laerm;25175;50.140;18.990;2023-04-25T10:45:52;46.47;36.33;61.77;;
77134;Laerm;25175;50.140;18.990;2023-04-25T10:49:04;46.98;34.61;61.24;;
77134;Laerm;25175;50.140;18.990;2023-04-25T10:52:27;42.24;34.58;56.87;;
77134;Laerm;25175;50.140;18.990;2023-04-25T10:55:56;42.80;34.79;59.06;;
77134;Laerm;25175;50.140;18.990;2023-04-25T10:59:10;44.04;35.47;57.18;;
77134;Laerm;25175;50.140;18.990;2023-04-25T11:02:26;46.85;35.71;60.88;;
77134;Laerm;25175;50.140;18.990;2023-04-25T11:05:35;43.22;35.10;58.45;;
77134;Laerm;25175;50.140;18.990;2023-04-25T11:08:49;47.57;35.58;66.00;;
77134;Laerm;25175;50.140;18.990;2023-04-25T11:13:14;44.04;34.82;55.67;;
77134;Laerm;25175;50.140;18.990;2023-04-25T11:15:52;47.28;35.03;61.33;;
77134;Laerm;25175;50.140;18.990;2023-04-25T11:18:58;45.41;35.29;60.20;;
77134;Laerm;25175;50.140;18.990;2023-04-25T11:22:15;46.09;34.77;59.25;;
77134;Laerm;25175;50.140;18.990;2023-04-25T11:25:23;45.69;35.86;60.55;;
77134;Laerm;25175;50.140;18.990;2023-04-25T11:28:31;44.90;35.78;53.87;;
77134;Laerm;25175;50.140;18.990;2023-04-25T11:31:48;45.17;35.56;59.12;;
77134;Laerm;25175;50.140;18.990;2023-04-25T11:34:56;44.41;35.16;57.42;;
77134;Laerm;25175;50.140;18.990;2023-04-25T11:38:02;46.78;34.62;59.99;;
77134;Laerm;25175;50.140;18.990;2023-04-25T11:41:08;45.63;36.28;59.06;;
77134;Laerm;25175;50.140;18.990;2023-04-25T11:44:23;45.41;36.39;56.11;;
77134;Laerm;25175;50.140;18.990;2023-04-25T11:47:36;46.15;34.90;59.89;;
77134;Laerm;25175;50.140;18.990;2023-04-25T11:50:54;45.82;34.96;60.30;;
77134;Laerm;25175;50.140;18.990;2023-04-25T11:54:01;44.28;35.59;54.73;;
77134;Laerm;25175;50.140;18.990;2023-04-25T11:57:06;56.19;35.96;80.00;;
77134;Laerm;25175;50.140;18.990;2023-04-25T12:00:17;43.76;35.51;58.26;;
77134;Laerm;25175;50.140;18.990;2023-04-25T12:03:26;46.56;36.21;59.80;;
77134;Laerm;25175;50.140;18.990;2023-04-25T12:06:38;48.85;36.98;63.07;;
77134;Laerm;25175;50.140;18.990;2023-04-25T12:09:51;49.46;35.38;68.74;;
77134;Laerm;25175;50.140;18.990;2023-04-25T12:13:00;51.60;36.30;69.08;;
77134;Laerm;25175;50.140;18.990;2023-04-25T12:16:22;44.46;35.57;58.38;;
77134;Laerm;25175;50.140;18.990;2023-04-25T12:19:39;45.52;35.92;59.77;;
77134;Laerm;25175;50.140;18.990;2023-04-25T12:22:48;46.43;35.51;60.34;;
77134;Laerm;25175;50.140;18.990;2023-04-25T12:25:57;48.37;37.00;61.26;;
77134;Laerm;25175;50.140;18.990;2023-04-25T12:29:16;44.40;34.65;58.83;;
77134;Laerm;25175;50.140;18.990;2023-04-25T12:32:26;46.45;36.66;59.36;;
77134;Laerm;25175;50.140;18.990;2023-04-25T12:35:38;46.17;36.35;60.16;;
77134;Laerm;25175;50.140;18.990;2023-04-25T12:38:45;46.47;35.42;58.82;;
77134;Laerm;25175;50.140;18.990;2023-04-25T12:45:24;44.45;35.88;54.54;;
77134;Laerm;25175;50.140;18.990;2023-04-25T12:48:32;46.35;35.25;58.33;;
77134;Laerm;25175;50.140;18.990;2023-04-25T12:51:43;48.94;36.70;63.93;;
77134;Laerm;25175;50.140;18.990;2023-04-25T12:54:49;46.25;35.31;60.68;;
77134;Laerm;25175;50.140;18.990;2023-04-25T12:57:58;47.60;35.15;59.77;;
77134;Laerm;25175;50.140;18.990;2023-04-25T13:01:05;46.72;35.40;58.14;;
77134;Laerm;25175;50.140;18.990;2023-04-25T13:04:11;52.54;36.54;74.66;;
77134;Laerm;25175;50.140;18.990;2023-04-25T13:07:19;46.06;35.87;59.86;;
77134;Laerm;25175;50.140;18.990;2023-04-25T13:10:25;48.25;36.63;58.78;;
77134;Laerm;25175;50.140;18.990;2023-04-25T13:13:30;48.17;35.62;58.82;;
77134;Laerm;25175;50.140;18.990;2023-04-25T13:16:43;47.15;35.43;59.51;;
77134;Laerm;25175;50.140;18.990;2023-04-25T13:19:48;46.17;34.98;58.33;;
77134;Laerm;25175;50.140;18.990;2023-04-25T13:22:57;43.68;33.81;54.92;;
77134;Laerm;25175;50.140;18.990;2023-04-25T13:26:06;46.28;33.67;55.56;;
77134;Laerm;25175;50.140;18.990;2023-04-25T13:29:12;47.58;34.63;58.11;;
77134;Laerm;25175;50.140;18.990;2023-04-25T13:32:26;46.12;34.18;64.03;;
77134;Laerm;25175;50.140;18.990;2023-04-25T13:35:35;45.93;34.54;57.88;;
77134;Laerm;25175;50.140;18.990;2023-04-25T13:38:43;47.75;34.83;63.17;;
77134;Laerm;25175;50.140;18.990;2023-04-25T13:45:40;45.06;35.60;56.40;;
77134;Laerm;25175;50.140;18.990;2023-04-25T13:49:02;49.52;35.58;64.25;;
77134;Laerm;25175;50.140;18.990;2023-04-25T13:52:11;46.22;35.25;60.53;;
77134;Laerm;25175;50.140;18.990;2023-04-25T13:55:19;47.80;35.40;61.06;;
77134;Laerm;25175;50.140;18.990;2023-04-25T13:58:25;45.92;35.20;56.53;;
77134;Laerm;25175;50.140;18.990;2023-04-25T14:01:44;46.29;34.40;57.85;;
77134;Laerm;25175;50.140;18.990;2023-04-25T14:04:49;46.69;34.75;71.12;;
77134;Laerm;25175;50.140;18.990;2023-04-25T14:07:58;45.59;34.85;61.76;;
77134;Laerm;25175;50.140;18.990;2023-04-25T14:11:19;47.84;34.72;60.95;;
77134;Laerm;25175;50.140;18.990;2023-04-25T14:14:25;46.15;35.24;56.19;;
77134;Laerm;25175;50.140;18.990;2023-04-25T14:17:49;47.85;33.97;62.05;;
77134;Laerm;25175;50.140;18.990;2023-04-25T14:20:55;44.16;33.46;60.14;;
77134;Laerm;25175;50.140;18.990;2023-04-25T14:24:00;50.20;36.26;71.65;;
77134;Laerm;25175;50.140;18.990;2023-04-25T14:27:12;49.39;36.68;66.28;;
77134;Laerm;25175;50.140;18.990;2023-04-25T14:30:19;45.50;34.95;58.46;;
77134;Laerm;25175;50.140;18.990;2023-04-25T14:33:25;44.89;34.66;56.28;;
77134;Laerm;25175;50.140;18.990;2023-04-25T14:36:32;46.75;36.38;60.48;;
77134;Laerm;25175;50.140;18.990;2023-04-25T14:39:38;48.17;35.36;66.63;;
77134;Laerm;25175;50.140;18.990;2023-04-25T14:42:51;46.21;35.39;59.86;;
77134;Laerm;25175;50.140;18.990;2023-04-25T14:45:57;44.30;35.19;55.04;;
77134;Laerm;25175;50.140;18.990;2023-04-25T14:49:05;46.10;34.82;64.00;;
77134;Laerm;25175;50.140;18.990;2023-04-25T14:52:12;46.07;35.70;56.10;;
77134;Laerm;25175;50.140;18.990;2023-04-25T14:55:21;42.89;34.70;55.86;;
77134;Laerm;25175;50.140;18.990;2023-04-25T14:58:36;49.25;35.09;69.84;;
77134;Laerm;25175;50.140;18.990;2023-04-25T15:01:51;46.81;34.85;58.84;;
77134;Laerm;25175;50.140;18.990;2023-04-25T15:05:11;46.08;35.49;58.45;;
77134;Laerm;25175;50.140;18.990;2023-04-25T15:08:17;46.99;35.86;67.55;;
77134;Laerm;25175;50.140;18.990;2023-04-25T15:11:26;45.52;35.51;57.78;;
77134;Laerm;25175;50.140;18.990;2023-04-25T15:14:51;49.06;35.08;66.40;;
77134;Laerm;25175;50.140;18.990;2023-04-25T15:17:57;46.59;34.92;55.08;;
77134;Laerm;25175;50.140;18.990;2023-04-25T15:21:06;45.15;34.99;55.41;;
77134;Laerm;25175;50.140;18.990;2023-04-25T15:24:12;43.08;34.14;59.19;;
77134;Laerm;25175;50.140;18.990;2023-04-25T15:27:18;45.30;34.35;57.50;;
77134;Laerm;25175;50.140;18.990;2023-04-25T15:30:27;45.93;34.77;60.94;;
77134;Laerm;25175;50.140;18.990;2023-04-25T15:33:32;46.07;34.36;58.81;;
77134;Laerm;25175;50.140;18.990;2023-04-25T15:36:42;46.78;34.81;64.90;;
77134;Laerm;25175;50.140;18.990;2023-04-25T15:40:14;44.67;35.18;58.78;;
77134;Laerm;25175;50.140;18.990;2023-04-25T15:43:21;46.70;36.27;58.17;;
77134;Laerm;25175;50.140;18.990;2023-04-25T15:46:32;46.23;34.34;57.29;;
77134;Laerm;25175;50.140;18.990;2023-04-25T15:49:44;45.47;34.88;59.89;;
77134;Laerm;25175;50.140;18.990;2023-04-25T15:52:51;47.05;36.54;59.70;;
77134;Laerm;25175;50.140;18.990;2023-04-25T15:55:57;47.62;35.91;65.89;;
77134;Laerm;25175;50.140;18.990;2023-04-25T15:59:02;45.72;35.21;57.82;;
77134;Laerm;25175;50.140;18.990;2023-04-25T16:02:17;43.30;34.68;56.06;;
77134;Laerm;25175;50.140;18.990;2023-04-25T16:05:23;45.40;34.86;56.04;;
77134;Laerm;25175;50.140;18.990;2023-04-25T16:08:32;43.59;34.61;62.21;;
77134;Laerm;25175;50.140;18.990;2023-04-25T16:11:37;45.73;34.71;59.00;;
77134;Laerm;25175;50.140;18.990;2023-04-25T16:14:45;45.55;34.45;60.35;;
77134;Laerm;25175;50.140;18.990;2023-04-25T16:17:54;47.79;36.79;63.06;;
77134;Laerm;25175;50.140;18.990;2023-04-25T16:21:00;46.33;35.54;58.41;;
77134;Laerm;25175;50.140;18.990;2023-04-25T16:24:06;46.80;35.08;67.49;;
77134;Laerm;25175;50.140;18.990;2023-04-25T16:27:14;46.05;34.56;61.15;;
77134;Laerm;25175;50.140;18.990;2023-04-25T16:30:22;48.19;36.10;63.35;;
77134;Laerm;25175;50.140;18.990;2023-04-25T16:33:30;53.60;33.64;77.43;;
77134;Laerm;25175;50.140;18.990;2023-04-25T16:36:36;50.99;34.28;76.85;;
77134;Laerm;25175;50.140;18.990;2023-04-25T16:39:43;47.10;35.43;76.08;;
77134;Laerm;25175;50.140;18.990;2023-04-25T16:42:51;43.87;33.69;53.77;;
77134;Laerm;25175;50.140;18.990;2023-04-25T16:45:57;43.94;33.71;56.61;;
77134;Laerm;25175;50.140;18.990;2023-04-25T16:49:06;46.19;33.83;64.84;;
77134;Laerm;25175;50.140;18.990;2023-04-25T16:52:13;46.51;34.71;63.01;;
77134;Laerm;25175;50.140;18.990;2023-04-25T16:55:18;45.23;35.44;57.90;;
77134;Laerm;25175;50.140;18.990;2023-04-25T16:58:25;45.72;34.63;58.44;;
77134;Laerm;25175;50.140;18.990;2023-04-25T17:02:11;44.81;34.24;61.32;;
77134;Laerm;25175;50.140;18.990;2023-04-25T17:05:21;43.62;34.19;62.81;;
77134;Laerm;25175;50.140;18.990;2023-04-25T17:08:27;45.10;34.34;62.32;;
77134;Laerm;25175;50.140;18.990;2023-04-25T17:11:33;45.18;35.05;60.50;;
77134;Laerm;25175;50.140;18.990;2023-04-25T17:15:08;44.97;35.02;60.34;;
77134;Laerm;25175;50.140;18.990;2023-04-25T17:18:14;46.89;34.14;66.31;;
77134;Laerm;25175;50.140;18.990;2023-04-25T17:21:33;43.12;33.63;57.14;;
77134;Laerm;25175;50.140;18.990;2023-04-25T17:24:44;44.98;34.66;59.09;;
77134;Laerm;25175;50.140;18.990;2023-04-25T17:27:49;46.06;35.56;62.80;;
77134;Laerm;25175;50.140;18.990;2023-04-25T17:30:56;43.38;35.99;54.41;;
77134;Laerm;25175;50.140;18.990;2023-04-25T17:34:01;42.82;33.59;61.33;;
77134;Laerm;25175;50.140;18.990;2023-04-25T17:41:23;47.51;35.71;61.98;;
77134;Laerm;25175;50.140;18.990;2023-04-25T17:44:32;45.33;34.50;58.71;;
77134;Laerm;25175;50.140;18.990;2023-04-25T17:47:37;51.97;35.10;64.09;;
77134;Laerm;25175;50.140;18.990;2023-04-25T17:50:45;45.09;34.08;60.57;;
77134;Laerm;25175;50.140;18.990;2023-04-25T17:53:51;45.88;34.98;60.38;;
77134;Laerm;25175;50.140;18.990;2023-04-25T18:00:45;44.03;34.08;55.74;;
77134;Laerm;25175;50.140;18.990;2023-04-25T18:03:52;41.69;33.55;54.79;;
77134;Laerm;25175;50.140;18.990;2023-04-25T18:06:57;45.60;33.57;59.88;;
77134;Laerm;25175;50.140;18.990;2023-04-25T18:10:06;46.78;34.10;65.12;;
77134;Laerm;25175;50.140;18.990;2023-04-25T18:13:15;43.35;33.11;58.94;;
77134;Laerm;25175;50.140;18.990;2023-04-25T18:16:21;40.65;33.56;52.17;;
77134;Laerm;25175;50.140;18.990;2023-04-25T18:19:27;43.62;33.24;57.67;;
77134;Laerm;25175;50.140;18.990;2023-04-25T18:22:41;43.12;33.58;60.38;;
77134;Laerm;25175;50.140;18.990;2023-04-25T18:25:48;44.54;33.81;62.04;;
77134;Laerm;25175;50.140;18.990;2023-04-25T18:28:58;45.91;34.75;59.23;;
77134;Laerm;25175;50.140;18.990;2023-04-25T18:32:48;42.77;34.18;55.23;;
77134;Laerm;25175;50.140;18.990;2023-04-25T18:35:59;42.53;33.57;52.91;;
77134;Laerm;25175;50.140;18.990;2023-04-25T18:39:07;43.59;33.76;56.64;;
77134;Laerm;25175;50.140;18.990;2023-04-25T18:42:13;39.76;33.38;59.04;;
77134;Laerm;25175;50.140;18.990;2023-04-25T18:45:22;39.55;33.73;52.13;;
77134;Laerm;25175;50.140;18.990;2023-04-25T18:48:28;41.45;33.52;54.65;;
77134;Laerm;25175;50.140;18.990;2023-04-25T18:51:39;40.57;33.54;54.73;;